createdAt,value
2022-12-11T00:01:17.821Z,99066.80
2022-12-11T00:03:50.800Z,99060.34
2022-12-11T00:06:24.512Z,99048.48
2022-12-11T00:08:57.776Z,99048.36
2022-12-11T00:11:30.346Z,99050.92
2022-12-11T00:14:02.917Z,99055.19
2022-12-11T00:16:35.445Z,99053.23
2022-12-11T00:19:08.218Z,99060.05
2022-12-11T00:21:40.611Z,99061.39
2022-12-11T00:24:13.374Z,99056.75
2022-12-11T00:26:46.016Z,99047.00
2022-12-11T00:29:19.566Z,99045.78
2022-12-11T00:31:52.112Z,99041.02
2022-12-11T00:34:24.692Z,99046.52
2022-12-11T00:36:58.967Z,99034.91
2022-12-11T00:39:32.010Z,99025.18
2022-12-11T00:42:04.508Z,99021.66
2022-12-11T00:44:37.649Z,99018.84
2022-12-11T00:47:10.089Z,99018.13
2022-12-11T00:49:48.076Z,99014.23
2022-12-11T00:52:18.236Z,99010.92
2022-12-11T00:54:50.858Z,99009.70
2022-12-11T00:57:23.228Z,99000.31
2022-12-11T00:59:55.908Z,99001.53
2022-12-11T01:02:28.475Z,99004.11
2022-12-11T01:05:01.112Z,99011.42
2022-12-11T01:07:34.143Z,99007.17
2022-12-11T01:10:25.866Z,99014.00
2022-12-11T01:13:06.804Z,99017.55
2022-12-11T01:15:44.859Z,99016.34
2022-12-11T01:18:17.336Z,99029.28
2022-12-11T01:20:50.048Z,99030.50
2022-12-11T01:23:22.805Z,99025.11
2022-12-11T01:25:55.328Z,99025.09
2022-12-11T01:28:29.709Z,99023.14
2022-12-11T01:31:02.274Z,99022.53
2022-12-11T01:33:35.087Z,99020.57
2022-12-11T01:36:21.170Z,99012.77
2022-12-11T01:38:54.684Z,99014.39
2022-12-11T01:41:27.290Z,99010.47
2022-12-11T01:44:06.694Z,98998.80
2022-12-11T01:46:39.530Z,98988.89
2022-12-11T01:49:14.015Z,98985.96
2022-12-11T01:51:59.801Z,98981.23
2022-12-11T01:54:32.658Z,98985.38
2022-12-11T01:57:07.907Z,98987.09
2022-12-11T01:59:42.404Z,98973.80
2022-12-11T02:02:21.874Z,98974.03
2022-12-11T02:04:54.293Z,98977.58
2022-12-11T02:07:26.701Z,98974.88
2022-12-11T02:09:59.190Z,98979.89
2022-12-11T02:12:51.632Z,98973.67
2022-12-11T02:15:37.145Z,98966.97
2022-12-11T02:18:23.237Z,98956.13
2022-12-11T02:21:18.961Z,98954.91
2022-12-11T02:24:16.222Z,98958.45
2022-12-11T02:27:26.633Z,98951.64
2022-12-11T02:30:08.306Z,98941.87
2022-12-11T02:32:57.129Z,98930.66
2022-12-11T02:35:42.058Z,98923.72
2022-12-11T02:38:28.565Z,98910.55
2022-12-11T02:41:01.367Z,98902.86
2022-12-11T02:43:35.379Z,98894.21
2022-12-11T02:46:08.914Z,98896.26
2022-12-11T02:48:41.804Z,98895.78
2022-12-11T02:51:16.723Z,98898.44
2022-12-11T02:53:50.126Z,98874.66
2022-12-11T02:56:32.118Z,98876.92
2022-12-11T02:59:12.277Z,98876.80
2022-12-11T03:01:45.597Z,98873.16
2022-12-11T03:04:18.140Z,98858.14
2022-12-11T03:06:52.665Z,98855.33
2022-12-11T03:09:25.164Z,98855.08
2022-12-11T03:11:57.618Z,98857.73
2022-12-11T03:14:30.096Z,98853.92
2022-12-11T03:17:22.355Z,98847.56
2022-12-11T03:20:05.433Z,98838.43
2022-12-11T03:22:49.233Z,98827.17
2022-12-11T03:25:32.074Z,98828.04
2022-12-11T03:28:20.949Z,98829.61
2022-12-11T03:30:53.793Z,98825.92
2022-12-11T03:33:33.231Z,98827.27
2022-12-11T03:36:22.025Z,98833.02
2022-12-11T03:39:14.515Z,98832.38
2022-12-11T03:41:47.107Z,98825.67
2022-12-11T03:44:20.590Z,98833.98
2022-12-11T03:46:54.519Z,98844.20
2022-12-11T03:49:29.831Z,98851.43
2022-12-11T03:52:02.288Z,98843.03
2022-12-11T03:54:34.990Z,98848.17
2022-12-11T03:57:07.350Z,98852.55
2022-12-11T03:59:40.072Z,98853.55
2022-12-11T04:02:12.641Z,98851.34
2022-12-11T04:04:45.348Z,98846.48
2022-12-11T04:07:18.030Z,98847.31
2022-12-11T04:09:50.907Z,98847.05
2022-12-11T04:12:23.995Z,98846.80
2022-12-11T04:15:05.436Z,98846.67
2022-12-11T04:17:56.720Z,98839.57
2022-12-11T04:20:47.412Z,98826.75
2022-12-11T04:23:38.228Z,98823.46
2022-12-11T04:26:16.459Z,98820.42
2022-12-11T04:28:49.867Z,98823.11
2022-12-11T04:31:23.604Z,98823.72
2022-12-11T04:33:56.119Z,98814.45
2022-12-11T04:36:28.449Z,98798.38
2022-12-11T04:39:00.932Z,98802.80
2022-12-11T04:41:33.339Z,98806.34
2022-12-11T04:44:06.435Z,98806.69
2022-12-11T04:46:38.911Z,98813.15
2022-12-11T04:49:12.774Z,98807.14
2022-12-11T04:51:45.268Z,98807.87
2022-12-11T04:54:18.654Z,98807.48
2022-12-11T04:56:50.997Z,98800.98
2022-12-11T04:59:23.699Z,98787.61
2022-12-11T05:01:56.084Z,98791.03
2022-12-11T05:04:33.439Z,98787.99
2022-12-11T05:07:05.809Z,98777.12
2022-12-11T05:09:38.830Z,98767.77
2022-12-11T05:12:11.441Z,98771.06
2022-12-11T05:14:44.874Z,98772.67
2022-12-11T05:17:17.421Z,98767.68
2022-12-11T05:19:53.201Z,98771.06
2022-12-11T05:22:26.143Z,98763.74
2022-12-11T05:24:58.473Z,98765.91
2022-12-11T05:27:30.934Z,98760.75
2022-12-11T05:30:03.338Z,98756.59
2022-12-11T05:32:36.093Z,98759.02
2022-12-11T05:35:29.925Z,98745.68
2022-12-11T05:38:02.476Z,98739.43
2022-12-11T05:40:35.141Z,98741.20
2022-12-11T05:43:07.577Z,98737.45
2022-12-11T05:45:40.087Z,98737.83
2022-12-11T05:48:12.603Z,98732.45
2022-12-11T05:50:45.161Z,98733.28
2022-12-11T05:53:17.643Z,98725.82
2022-12-11T05:55:50.080Z,98718.11
2022-12-11T05:58:22.568Z,98720.19
2022-12-11T06:00:55.172Z,98713.81
2022-12-11T06:03:27.946Z,98714.41
2022-12-11T06:06:04.964Z,98697.78
2022-12-11T06:08:37.854Z,98700.55
2022-12-11T06:11:10.401Z,98692.67
2022-12-11T06:13:44.136Z,98694.36
2022-12-11T06:16:16.847Z,98698.39
2022-12-11T06:18:49.398Z,98692.33
2022-12-11T06:21:28.251Z,98692.19
2022-12-11T06:24:03.521Z,98685.34
2022-12-11T06:26:36.037Z,98691.06
2022-12-11T06:29:12.626Z,98686.30
2022-12-11T06:31:43.210Z,98688.19
2022-12-11T06:34:16.202Z,98684.16
2022-12-11T06:36:48.612Z,98686.09
2022-12-11T06:39:21.174Z,98679.97
2022-12-11T06:41:54.486Z,98675.87
2022-12-11T06:44:28.512Z,98669.09
2022-12-11T06:47:01.368Z,98663.10
2022-12-11T06:49:33.939Z,98663.39
2022-12-11T06:52:07.810Z,98652.22
2022-12-11T06:54:40.371Z,98641.20
2022-12-11T06:57:12.894Z,98639.71
2022-12-11T06:59:45.899Z,98643.16
2022-12-11T07:02:19.980Z,98635.44
2022-12-11T07:04:55.227Z,98634.48
2022-12-11T07:07:26.693Z,98619.42
2022-12-11T07:10:05.785Z,98619.04
2022-12-11T07:12:33.170Z,98617.70
2022-12-11T07:15:06.470Z,98614.11
2022-12-11T07:17:39.571Z,98589.70
2022-12-11T07:20:12.930Z,98580.63
2022-12-11T07:22:47.067Z,98585.66
2022-12-11T07:25:27.211Z,98590.04
2022-12-11T07:27:59.535Z,98602.58
2022-12-11T07:30:32.469Z,98599.33
2022-12-11T07:33:04.902Z,98593.73
2022-12-11T07:35:38.200Z,98586.44
2022-12-11T07:38:10.593Z,98581.26
2022-12-11T07:40:42.953Z,98575.25
2022-12-11T07:43:15.879Z,98581.70
2022-12-11T07:45:48.319Z,98573.16
2022-12-11T07:48:20.886Z,98575.97
2022-12-11T07:50:53.290Z,98561.18
2022-12-11T07:53:25.950Z,98567.48
2022-12-11T07:56:00.107Z,98567.02
2022-12-11T07:58:32.965Z,98563.41
2022-12-11T08:01:07.063Z,98563.59
2022-12-11T08:03:39.892Z,98559.61
2022-12-11T08:06:12.780Z,98551.25
2022-12-11T08:08:45.292Z,98538.70
2022-12-11T08:11:17.800Z,98532.89
2022-12-11T08:13:51.117Z,98530.53
2022-12-11T08:16:24.170Z,98532.73
2022-12-11T08:18:56.863Z,98534.57
2022-12-11T08:21:29.564Z,98522.27
2022-12-11T08:24:02.011Z,98514.00
2022-12-11T08:26:35.016Z,98510.97
2022-12-11T08:29:08.074Z,98504.23
2022-12-11T08:31:42.197Z,98496.70
2022-12-11T08:34:14.567Z,98490.02
2022-12-11T08:36:47.324Z,98489.04
2022-12-11T08:39:20.817Z,98488.89
2022-12-11T08:41:53.433Z,98478.61
2022-12-11T08:44:27.292Z,98470.09
2022-12-11T08:46:59.719Z,98466.09
2022-12-11T08:49:34.635Z,98462.95
2022-12-11T08:52:08.551Z,98445.80
2022-12-11T08:54:40.444Z,98438.77
2022-12-11T08:57:14.519Z,98435.77
2022-12-11T08:59:47.320Z,98429.53
2022-12-11T09:02:19.974Z,98426.54
2022-12-11T09:04:52.702Z,98418.68
2022-12-11T09:07:25.873Z,98419.20
2022-12-11T09:09:58.488Z,98406.45
2022-12-11T09:12:31.737Z,98402.29
2022-12-11T09:15:05.194Z,98397.09
2022-12-11T09:17:37.837Z,98391.22
2022-12-11T09:20:11.152Z,98384.48
2022-12-11T09:22:44.688Z,98386.01
2022-12-11T09:25:17.161Z,98373.09
2022-12-11T09:27:49.741Z,98364.03
2022-12-11T09:30:22.237Z,98363.42
2022-12-11T09:32:54.929Z,98353.52
2022-12-11T09:35:27.839Z,98352.05
2022-12-11T09:38:00.272Z,98334.41
2022-12-11T09:40:33.813Z,98337.98
2022-12-11T09:43:29.992Z,98327.20
2022-12-11T09:46:04.090Z,98321.50
2022-12-11T09:48:36.500Z,98316.66
2022-12-11T09:51:20.000Z,98304.54
2022-12-11T09:53:52.488Z,98306.12
2022-12-11T09:56:35.246Z,98288.77
2022-12-11T09:59:33.384Z,98285.08
2022-12-11T10:02:13.656Z,98283.09
2022-12-11T10:05:05.993Z,98274.86
2022-12-11T10:07:46.220Z,98271.52
2022-12-11T10:10:55.168Z,98257.56
2022-12-11T10:13:53.060Z,98244.12
2022-12-11T10:16:37.024Z,98233.36
2022-12-11T10:19:22.527Z,98225.95
2022-12-11T10:21:55.048Z,98224.81
2022-12-11T10:25:09.980Z,98217.08
2022-12-11T10:27:22.660Z,98220.13
2022-12-11T10:29:59.876Z,98203.29
2022-12-11T10:32:45.966Z,98187.76
2022-12-11T10:35:45.269Z,98186.75
2022-12-11T10:38:37.708Z,98179.00
2022-12-11T10:41:21.362Z,98176.61
2022-12-11T10:43:54.508Z,98160.75
2022-12-11T10:46:28.770Z,98159.70
2022-12-11T10:49:02.369Z,98153.46
2022-12-11T10:51:56.280Z,98125.91
2022-12-11T10:54:38.382Z,98125.91
2022-12-11T10:57:12.291Z,98121.34
2022-12-11T10:59:52.153Z,98129.59
2022-12-11T11:02:40.761Z,98115.73
2022-12-11T11:05:32.555Z,98115.05
2022-12-11T11:08:21.633Z,98111.29
2022-12-11T11:10:56.062Z,98106.89
2022-12-11T11:13:29.599Z,98098.75
2022-12-11T11:16:14.951Z,98096.37
2022-12-11T11:18:54.585Z,98097.38
2022-12-11T11:21:29.251Z,98082.48
2022-12-11T11:24:01.801Z,98077.40
2022-12-11T11:27:11.102Z,98070.43
2022-12-11T11:29:12.583Z,98073.95
2022-12-11T11:31:45.647Z,98064.45
2022-12-11T11:34:22.543Z,98064.78
2022-12-11T11:37:01.148Z,98062.03
2022-12-11T11:39:40.729Z,98044.91
2022-12-11T11:42:28.160Z,98046.05
2022-12-11T11:45:09.199Z,98054.45
2022-12-11T11:47:55.661Z,98037.67
2022-12-11T11:50:34.946Z,98033.58
2022-12-11T11:53:20.510Z,98026.98
2022-12-11T11:56:03.140Z,98023.38
2022-12-11T11:58:45.584Z,98026.23
2022-12-11T12:01:20.175Z,98023.88
2022-12-11T12:03:52.807Z,98016.39
2022-12-11T12:06:53.029Z,98006.55
2022-12-11T12:09:39.054Z,98002.13
2022-12-11T12:12:21.043Z,98002.13
2022-12-11T12:15:22.066Z,98001.12
2022-12-11T12:18:13.207Z,97998.38
2022-12-11T12:21:23.550Z,98007.13
2022-12-11T12:24:15.413Z,97985.45
2022-12-11T12:27:17.608Z,97991.19
2022-12-11T12:30:04.521Z,97980.86
2022-12-11T12:33:02.879Z,97969.71
2022-12-11T12:35:43.155Z,97972.23
2022-12-11T12:38:38.372Z,97964.11
2022-12-11T12:41:33.414Z,97962.39
2022-12-11T12:44:26.522Z,97965.42
2022-12-11T12:47:14.408Z,97956.61
2022-12-11T12:49:51.463Z,97955.92
2022-12-11T12:52:36.164Z,97953.70
2022-12-11T12:55:24.225Z,97959.59
2022-12-11T12:58:07.055Z,97950.75
2022-12-11T13:00:44.323Z,97953.09
2022-12-11T13:03:22.461Z,97945.95
2022-12-11T13:06:05.132Z,97936.59
2022-12-11T13:08:51.080Z,97929.64
2022-12-11T13:11:25.330Z,97934.69
2022-12-11T13:14:17.733Z,97945.66
2022-12-11T13:16:53.777Z,97940.71
2022-12-11T13:19:29.605Z,97935.61
2022-12-11T13:22:22.407Z,97935.90
2022-12-11T13:25:01.265Z,97938.55
2022-12-11T13:27:41.867Z,97923.41
2022-12-11T13:30:24.277Z,97939.09
2022-12-11T13:33:09.422Z,97923.13
2022-12-11T13:35:42.182Z,97917.64
2022-12-11T13:38:20.511Z,97910.11
2022-12-11T13:40:55.663Z,97908.69
2022-12-11T13:43:30.847Z,97910.64
2022-12-11T13:46:05.310Z,97906.13
2022-12-11T13:48:48.588Z,97907.69
2022-12-11T13:51:23.115Z,97903.86
2022-12-11T13:54:29.376Z,97894.30
2022-12-11T13:57:11.882Z,97893.41
2022-12-11T13:59:56.185Z,97890.81
2022-12-11T14:02:39.008Z,97905.04
2022-12-11T14:05:12.923Z,97891.09
2022-12-11T14:07:54.402Z,97894.77
2022-12-11T14:10:28.718Z,97904.08
2022-12-11T14:13:26.632Z,97885.09
2022-12-11T14:15:59.189Z,97888.97
2022-12-11T14:18:33.967Z,97874.86
2022-12-11T14:21:07.824Z,97889.59
2022-12-11T14:23:40.202Z,97873.00
2022-12-11T14:26:24.569Z,97873.31
2022-12-11T14:28:57.130Z,97885.52
2022-12-11T14:31:37.487Z,97883.53
2022-12-11T14:34:22.717Z,97870.28
2022-12-11T14:36:55.326Z,97871.14
2022-12-11T14:39:34.667Z,97866.22
2022-12-11T14:42:16.819Z,97869.58
2022-12-11T14:44:56.341Z,97866.87
2022-12-11T14:47:42.604Z,97871.25
2022-12-11T14:50:27.574Z,97866.33
2022-12-11T14:53:07.277Z,97869.58
2022-12-11T14:55:39.590Z,97870.09
2022-12-11T14:58:23.925Z,97867.88
2022-12-11T15:01:02.912Z,97868.54
2022-12-11T15:03:40.314Z,97873.97
2022-12-11T15:06:31.129Z,97875.02
2022-12-11T15:09:14.613Z,97859.55
2022-12-11T15:11:47.724Z,97863.11
2022-12-11T15:14:23.020Z,97868.54
2022-12-11T15:16:58.088Z,97854.47
2022-12-11T15:19:34.029Z,97860.71
2022-12-11T15:22:07.631Z,97854.78
2022-12-11T15:24:42.812Z,97851.02
2022-12-11T15:27:38.322Z,97852.57
2022-12-11T15:30:26.370Z,97856.45
2022-12-11T15:33:15.282Z,97858.66
2022-12-11T15:36:07.885Z,97851.53
2022-12-11T15:38:42.355Z,97847.45
2022-12-11T15:41:17.649Z,97851.53
2022-12-11T15:43:53.914Z,97850.83
2022-12-11T15:46:24.280Z,97843.73
2022-12-11T15:48:58.112Z,97841.64
2022-12-11T15:51:30.576Z,97846.05
2022-12-11T15:54:03.282Z,97836.56
2022-12-11T15:56:36.253Z,97835.20
2022-12-11T15:59:08.915Z,97828.08
2022-12-11T16:01:41.304Z,97829.97
2022-12-11T16:04:15.003Z,97845.70
2022-12-11T16:06:47.572Z,97834.86
2022-12-11T16:09:20.843Z,97837.57
2022-12-11T16:11:53.194Z,97830.79
2022-12-11T16:14:25.785Z,97828.81
2022-12-11T16:16:58.185Z,97829.77
2022-12-11T16:19:31.635Z,97832.48
2022-12-11T16:22:04.885Z,97826.52
2022-12-11T16:24:38.192Z,97836.02
2022-12-11T16:27:10.959Z,97830.40
2022-12-11T16:29:43.877Z,97819.89
2022-12-11T16:32:16.421Z,97822.52
2022-12-11T16:34:48.882Z,97828.37
2022-12-11T16:37:21.258Z,97825.16
2022-12-11T16:39:53.920Z,97823.41
2022-12-11T16:42:26.325Z,97828.44
2022-12-11T16:45:21.931Z,97821.97
2022-12-11T16:47:54.476Z,97826.38
2022-12-11T16:50:27.035Z,97823.97
2022-12-11T16:52:59.575Z,97828.66
2022-12-11T16:55:32.257Z,97841.64
2022-12-11T16:58:04.803Z,97825.51
2022-12-11T17:00:37.510Z,97827.52
2022-12-11T17:03:10.015Z,97822.73
2022-12-11T17:05:43.744Z,97833.00
2022-12-11T17:08:16.457Z,97820.70
2022-12-11T17:10:48.828Z,97838.77
2022-12-11T17:13:21.500Z,97826.55
2022-12-11T17:15:54.229Z,97826.89
2022-12-11T17:18:26.634Z,97831.59
2022-12-11T17:20:59.823Z,97832.23
2022-12-11T17:23:32.526Z,97828.47
2022-12-11T17:26:04.995Z,97826.21
2022-12-11T17:28:37.948Z,97834.16
2022-12-11T17:31:16.846Z,97826.63
2022-12-11T17:33:50.105Z,97827.79
2022-12-11T17:36:23.488Z,97828.13
2022-12-11T17:38:56.182Z,97832.83
2022-12-11T17:41:28.869Z,97836.70
2022-12-11T17:44:01.280Z,97829.91
2022-12-11T17:46:33.830Z,97835.69
2022-12-11T17:49:06.698Z,97835.34
2022-12-11T17:51:39.879Z,97836.19
2022-12-11T17:54:12.338Z,97835.87
2022-12-11T17:56:44.994Z,97837.75
2022-12-11T17:59:18.022Z,97838.06
2022-12-11T18:01:50.672Z,97839.11
2022-12-11T18:04:23.019Z,97848.11
2022-12-11T18:06:55.414Z,97862.20
2022-12-11T18:09:28.067Z,97835.34
2022-12-11T18:12:00.938Z,97842.13
2022-12-11T18:14:33.328Z,97854.16
2022-12-11T18:17:06.441Z,97853.65
2022-12-11T18:19:44.385Z,97856.36
2022-12-11T18:22:13.000Z,97851.98
2022-12-11T18:24:45.340Z,97851.23
2022-12-11T18:27:18.085Z,97857.33
2022-12-11T18:29:50.450Z,97864.42
2022-12-11T18:32:22.966Z,97867.80
2022-12-11T18:34:55.500Z,97876.56
2022-12-11T18:37:28.322Z,97879.28
2022-12-11T18:40:00.834Z,97880.13
2022-12-11T18:42:33.996Z,97878.66
2022-12-11T18:45:07.657Z,97889.84
2022-12-11T18:47:40.013Z,97889.84
2022-12-11T18:50:14.266Z,97891.50
2022-12-11T18:52:46.618Z,97898.64
2022-12-11T18:55:18.961Z,97899.45
2022-12-11T18:57:51.425Z,97906.78
2022-12-11T19:00:24.209Z,97919.02
2022-12-11T19:02:56.845Z,97946.38
2022-12-11T19:05:30.424Z,97966.48
2022-12-11T19:08:03.461Z,97999.17
2022-12-11T19:10:37.703Z,98009.70
2022-12-11T19:13:31.174Z,98000.75
2022-12-11T19:16:05.238Z,98009.32
2022-12-11T19:18:37.596Z,98011.63
2022-12-11T19:21:12.726Z,98018.54
2022-12-11T19:23:44.531Z,98018.05
2022-12-11T19:26:19.794Z,98021.94
2022-12-11T19:28:53.008Z,98026.16
2022-12-11T19:31:26.999Z,98040.97
2022-12-11T19:33:59.208Z,98037.69
2022-12-11T19:36:33.666Z,98044.33
2022-12-11T19:39:12.638Z,98049.31
2022-12-11T19:41:40.972Z,98067.81
2022-12-11T19:44:13.547Z,98055.25
2022-12-11T19:46:46.228Z,98079.06
2022-12-11T19:49:19.373Z,98097.48
2022-12-11T19:51:51.972Z,98110.11
2022-12-11T19:54:26.030Z,98112.30
2022-12-11T19:56:58.341Z,98124.78
2022-12-11T19:59:31.254Z,98124.92
2022-12-11T20:02:03.810Z,98111.61
2022-12-11T20:04:36.417Z,98125.05
2022-12-11T20:07:08.794Z,98126.88
2022-12-11T20:09:42.942Z,98126.19
2022-12-11T20:12:15.680Z,98125.52
2022-12-11T20:14:48.416Z,98121.44
2022-12-11T20:17:20.917Z,98111.67
2022-12-11T20:19:54.752Z,98129.50
2022-12-11T20:22:27.073Z,98144.80
2022-12-11T20:24:59.570Z,98149.59
2022-12-11T20:27:32.355Z,98163.98
2022-12-11T20:30:06.095Z,98161.96
2022-12-11T20:32:38.818Z,98167.66
2022-12-11T20:35:11.804Z,98146.89
2022-12-11T20:37:44.985Z,98156.22
2022-12-11T20:40:17.559Z,98160.01
2022-12-11T20:42:50.230Z,98165.03
2022-12-11T20:45:22.984Z,98165.34
2022-12-11T20:47:55.369Z,98169.20
2022-12-11T20:50:28.882Z,98171.34
2022-12-11T20:53:01.383Z,98171.98
2022-12-11T20:55:33.860Z,98174.98
2022-12-11T20:58:06.169Z,98174.96
2022-12-11T21:00:39.874Z,98173.28
2022-12-11T21:03:12.298Z,98184.02
2022-12-11T21:05:46.598Z,98175.21
2022-12-11T21:08:19.846Z,98178.91
2022-12-11T21:10:52.326Z,98187.70
2022-12-11T21:13:25.787Z,98193.14
2022-12-11T21:15:58.132Z,98186.87
2022-12-11T21:18:30.730Z,98206.33
2022-12-11T21:21:03.262Z,98224.22
2022-12-11T21:23:36.268Z,98233.22
2022-12-11T21:26:09.012Z,98235.05
2022-12-11T21:28:41.561Z,98241.25
2022-12-11T21:31:16.694Z,98237.47
2022-12-11T21:33:49.538Z,98248.63
2022-12-11T21:36:22.093Z,98269.66
2022-12-11T21:38:55.205Z,98263.33
2022-12-11T21:41:29.348Z,98255.81
2022-12-11T21:45:14.503Z,98264.45
2022-12-11T21:46:38.065Z,98264.08
2022-12-11T21:49:10.693Z,98261.81
2022-12-11T21:51:47.107Z,98277.64
2022-12-11T21:54:19.361Z,98290.30
2022-12-11T21:56:51.747Z,98289.91
2022-12-11T21:59:25.016Z,98301.86
2022-12-11T22:01:57.435Z,98311.14
2022-12-11T22:04:30.287Z,98297.58
2022-12-11T22:07:02.903Z,98287.41
2022-12-11T22:09:35.162Z,98286.64
2022-12-11T22:12:08.061Z,98293.00
2022-12-11T22:14:40.933Z,98305.80
2022-12-11T22:17:13.454Z,98300.52
2022-12-11T22:19:46.441Z,98294.77
2022-12-11T22:22:19.394Z,98299.59
2022-12-11T22:24:52.123Z,98290.97
2022-12-11T22:27:24.526Z,98284.48
2022-12-11T22:29:58.680Z,98285.19
2022-12-11T22:32:31.537Z,98290.62
2022-12-11T22:35:04.061Z,98293.45
2022-12-11T22:37:36.921Z,98300.30
2022-12-11T22:40:10.645Z,98303.98
2022-12-11T22:42:44.336Z,98307.34
2022-12-11T22:45:16.776Z,98316.87
2022-12-11T22:47:49.409Z,98315.84
2022-12-11T22:50:21.919Z,98320.15
2022-12-11T22:52:54.789Z,98323.73
2022-12-11T22:55:27.277Z,98333.98
2022-12-11T22:57:59.637Z,98342.30
2022-12-11T23:00:31.949Z,98341.23
2022-12-11T23:03:04.546Z,98350.41
2022-12-11T23:05:39.365Z,98345.05
2022-12-11T23:08:11.983Z,98350.89
2022-12-11T23:10:44.763Z,98350.17
2022-12-11T23:13:17.416Z,98341.20
2022-12-11T23:15:50.350Z,98340.50
2022-12-11T23:18:22.852Z,98336.48
2022-12-11T23:20:55.770Z,98331.39
2022-12-11T23:23:28.418Z,98327.72
2022-12-11T23:26:00.949Z,98333.45
2022-12-11T23:28:33.621Z,98332.39
2022-12-11T23:31:06.652Z,98321.29
2022-12-11T23:33:39.216Z,98311.83
2022-12-11T23:36:12.048Z,98304.72
2022-12-11T23:38:47.241Z,98310.35
2022-12-11T23:41:19.423Z,98322.41
2022-12-11T23:43:52.255Z,98333.90
2022-12-11T23:46:25.936Z,98332.42
2022-12-11T23:48:58.590Z,98346.76
2022-12-11T23:51:31.249Z,98359.82
2022-12-11T23:54:03.696Z,98362.50
2022-12-11T23:56:36.797Z,98358.48
2022-12-11T23:59:11.006Z,98363.84
